sensor_id;sensor_type;location;lat;lon;timestamp;pressure;altitude;pressure_sealevel;temperature;humidity
76868;BME280;66168;45.478;11.060;2023-05-21T00:01:15;100492.31;;;19.45;62.00
76868;BME280;66168;45.478;11.060;2023-05-21T00:03:42;100491.38;;;19.53;61.90
76868;BME280;66168;45.478;11.060;2023-05-21T00:06:11;100486.31;;;19.57;61.85
76868;BME280;66168;45.478;11.060;2023-05-21T00:08:39;100483.80;;;19.58;61.93
76868;BME280;66168;45.478;11.060;2023-05-21T00:11:06;100482.95;;;19.58;61.82
76868;BME280;66168;45.478;11.060;2023-05-21T00:13:33;100481.36;;;19.60;61.46
76868;BME280;66168;45.478;11.060;2023-05-21T00:16:00;100481.96;;;19.63;61.18
76868;BME280;66168;45.478;11.060;2023-05-21T00:18:27;100480.35;;;19.66;61.27
76868;BME280;66168;45.478;11.060;2023-05-21T00:20:53;100474.83;;;19.67;61.28
76868;BME280;66168;45.478;11.060;2023-05-21T00:23:20;100474.73;;;19.68;61.19
76868;BME280;66168;45.478;11.060;2023-05-21T00:25:47;100472.74;;;19.71;60.73
76868;BME280;66168;45.478;11.060;2023-05-21T00:28:15;100470.00;;;19.72;60.69
76868;BME280;66168;45.478;11.060;2023-05-21T00:30:43;100468.19;;;19.72;60.66
76868;BME280;66168;45.478;11.060;2023-05-21T00:33:09;100468.17;;;19.72;60.60
76868;BME280;66168;45.478;11.060;2023-05-21T00:35:39;100464.85;;;19.73;60.69
76868;BME280;66168;45.478;11.060;2023-05-21T00:38:06;100462.90;;;19.73;60.84
76868;BME280;66168;45.478;11.060;2023-05-21T00:40:36;100462.01;;;19.72;60.82
76868;BME280;66168;45.478;11.060;2023-05-21T00:43:06;100455.58;;;19.70;60.73
76868;BME280;66168;45.478;11.060;2023-05-21T00:45:36;100449.95;;;19.68;60.87
76868;BME280;66168;45.478;11.060;2023-05-21T00:48:04;100446.19;;;19.66;60.92
76868;BME280;66168;45.478;11.060;2023-05-21T00:50:32;100444.73;;;19.63;60.92
76868;BME280;66168;45.478;11.060;2023-05-21T00:52:59;100443.87;;;19.60;61.11
76868;BME280;66168;45.478;11.060;2023-05-21T00:55:25;100445.33;;;19.58;61.06
76868;BME280;66168;45.478;11.060;2023-05-21T00:57:53;100439.77;;;19.54;61.17
76868;BME280;66168;45.478;11.060;2023-05-21T01:00:21;100443.90;;;19.51;61.29
76868;BME280;66168;45.478;11.060;2023-05-21T01:02:50;100440.66;;;19.49;61.21
76868;BME280;66168;45.478;11.060;2023-05-21T01:05:18;100438.11;;;19.45;61.58
76868;BME280;66168;45.478;11.060;2023-05-21T01:07:44;100436.52;;;19.41;61.75
76868;BME280;66168;45.478;11.060;2023-05-21T01:10:12;100435.76;;;19.37;61.71
76868;BME280;66168;45.478;11.060;2023-05-21T01:12:41;100431.55;;;19.34;61.89
76868;BME280;66168;45.478;11.060;2023-05-21T01:15:09;100431.86;;;19.31;61.86
76868;BME280;66168;45.478;11.060;2023-05-21T01:17:37;100431.54;;;19.29;61.88
76868;BME280;66168;45.478;11.060;2023-05-21T01:20:05;100429.00;;;19.27;62.00
76868;BME280;66168;45.478;11.060;2023-05-21T01:22:41;100431.90;;;19.23;62.05
76868;BME280;66168;45.478;11.060;2023-05-21T01:25:09;100433.45;;;19.20;62.21
76868;BME280;66168;45.478;11.060;2023-05-21T01:27:36;100438.58;;;19.16;62.61
76868;BME280;66168;45.478;11.060;2023-05-21T01:30:04;100443.08;;;19.11;63.19
76868;BME280;66168;45.478;11.060;2023-05-21T01:32:37;100439.77;;;19.06;63.79
76868;BME280;66168;45.478;11.060;2023-05-21T01:35:37;100441.48;;;19.03;64.35
76868;BME280;66168;45.478;11.060;2023-05-21T01:38:22;100436.85;;;19.01;64.72
76868;BME280;66168;45.478;11.060;2023-05-21T01:41:00;100439.83;;;18.99;64.62
76868;BME280;66168;45.478;11.060;2023-05-21T01:43:33;100435.27;;;18.92;64.70
76868;BME280;66168;45.478;11.060;2023-05-21T01:46:00;100433.33;;;18.85;65.17
76868;BME280;66168;45.478;11.060;2023-05-21T01:48:28;100428.48;;;18.78;65.27
76868;BME280;66168;45.478;11.060;2023-05-21T01:50:59;100428.75;;;18.71;65.67
76868;BME280;66168;45.478;11.060;2023-05-21T01:53:26;100428.89;;;18.68;66.01
76868;BME280;66168;45.478;11.060;2023-05-21T01:55:53;100423.27;;;18.65;66.56
76868;BME280;66168;45.478;11.060;2023-05-21T01:58:20;100422.16;;;18.59;67.29
76868;BME280;66168;45.478;11.060;2023-05-21T02:00:48;100414.02;;;18.49;67.67
76868;BME280;66168;45.478;11.060;2023-05-21T02:03:17;100418.82;;;18.45;67.77
76868;BME280;66168;45.478;11.060;2023-05-21T02:05:45;100423.91;;;18.37;68.30
76868;BME280;66168;45.478;11.060;2023-05-21T02:08:12;100417.97;;;18.30;68.08
76868;BME280;66168;45.478;11.060;2023-05-21T02:10:40;100416.84;;;18.24;68.45
76868;BME280;66168;45.478;11.060;2023-05-21T02:13:07;100417.89;;;18.17;69.04
76868;BME280;66168;45.478;11.060;2023-05-21T02:15:34;100419.11;;;18.14;69.59
76868;BME280;66168;45.478;11.060;2023-05-21T02:18:01;100414.84;;;18.08;69.94
76868;BME280;66168;45.478;11.060;2023-05-21T02:20:29;100411.15;;;18.06;70.07
76868;BME280;66168;45.478;11.060;2023-05-21T02:22:56;100412.30;;;18.01;70.12
76868;BME280;66168;45.478;11.060;2023-05-21T02:25:23;100410.61;;;17.95;70.45
76868;BME280;66168;45.478;11.060;2023-05-21T02:27:50;100407.16;;;17.93;70.98
76868;BME280;66168;45.478;11.060;2023-05-21T02:30:19;100406.24;;;17.95;71.14
76868;BME280;66168;45.478;11.060;2023-05-21T02:32:47;100405.09;;;17.94;71.21
76868;BME280;66168;45.478;11.060;2023-05-21T02:35:15;100405.23;;;17.89;71.33
76868;BME280;66168;45.478;11.060;2023-05-21T02:37:42;100396.98;;;17.84;71.73
76868;BME280;66168;45.478;11.060;2023-05-21T02:40:10;100395.10;;;17.82;71.68
76868;BME280;66168;45.478;11.060;2023-05-21T02:42:38;100395.45;;;17.84;72.06
76868;BME280;66168;45.478;11.060;2023-05-21T02:45:09;100385.98;;;17.85;71.80
76868;BME280;66168;45.478;11.060;2023-05-21T02:47:37;100385.40;;;17.86;71.76
76868;BME280;66168;45.478;11.060;2023-05-21T02:50:07;100378.90;;;17.84;71.80
76868;BME280;66168;45.478;11.060;2023-05-21T02:52:39;100381.89;;;17.80;71.95
76868;BME280;66168;45.478;11.060;2023-05-21T02:55:07;100374.23;;;17.78;72.56
76868;BME280;66168;45.478;11.060;2023-05-21T02:57:34;100371.23;;;17.73;72.64
76868;BME280;66168;45.478;11.060;2023-05-21T03:00:02;100366.52;;;17.73;72.73
76868;BME280;66168;45.478;11.060;2023-05-21T03:02:32;100368.50;;;17.73;73.08
76868;BME280;66168;45.478;11.060;2023-05-21T03:04:59;100363.19;;;17.72;72.80
76868;BME280;66168;45.478;11.060;2023-05-21T03:07:26;100363.72;;;17.69;72.60
76868;BME280;66168;45.478;11.060;2023-05-21T03:09:53;100366.35;;;17.70;72.43
76868;BME280;66168;45.478;11.060;2023-05-21T03:12:20;100367.89;;;17.67;72.89
76868;BME280;66168;45.478;11.060;2023-05-21T03:14:48;100368.40;;;17.64;73.35
76868;BME280;66168;45.478;11.060;2023-05-21T03:17:18;100368.55;;;17.61;73.65
76868;BME280;66168;45.478;11.060;2023-05-21T03:19:46;100368.33;;;17.57;73.47
76868;BME280;66168;45.478;11.060;2023-05-21T03:22:15;100369.01;;;17.52;73.45
76868;BME280;66168;45.478;11.060;2023-05-21T03:24:42;100369.91;;;17.47;73.60
76868;BME280;66168;45.478;11.060;2023-05-21T03:27:10;100372.64;;;17.45;73.75
76868;BME280;66168;45.478;11.060;2023-05-21T03:29:37;100370.94;;;17.44;73.91
76868;BME280;66168;45.478;11.060;2023-05-21T03:32:06;100359.94;;;17.45;74.37
76868;BME280;66168;45.478;11.060;2023-05-21T03:34:33;100354.27;;;17.44;74.09
76868;BME280;66168;45.478;11.060;2023-05-21T03:37:01;100350.87;;;17.49;73.23
76868;BME280;66168;45.478;11.060;2023-05-21T03:39:28;100354.09;;;17.59;72.66
76868;BME280;66168;45.478;11.060;2023-05-21T03:41:54;100353.13;;;17.61;72.60
76868;BME280;66168;45.478;11.060;2023-05-21T03:44:27;100352.36;;;17.65;72.31
76868;BME280;66168;45.478;11.060;2023-05-21T03:47:16;100346.89;;;17.68;72.24
76868;BME280;66168;45.478;11.060;2023-05-21T03:49:43;100351.77;;;17.80;71.38
76868;BME280;66168;45.478;11.060;2023-05-21T03:52:09;100352.39;;;17.91;71.10
76868;BME280;66168;45.478;11.060;2023-05-21T03:54:36;100355.17;;;18.06;69.60
76868;BME280;66168;45.478;11.060;2023-05-21T03:57:05;100352.70;;;18.28;68.62
76868;BME280;66168;45.478;11.060;2023-05-21T03:59:32;100353.75;;;18.44;67.23
76868;BME280;66168;45.478;11.060;2023-05-21T04:01:59;100353.96;;;18.64;66.32
76868;BME280;66168;45.478;11.060;2023-05-21T04:04:26;100350.83;;;18.83;65.29
76868;BME280;66168;45.478;11.060;2023-05-21T04:06:55;100353.60;;;18.97;64.79
76868;BME280;66168;45.478;11.060;2023-05-21T04:09:22;100355.05;;;19.17;63.63
76868;BME280;66168;45.478;11.060;2023-05-21T04:11:50;100362.80;;;19.32;63.02
76868;BME280;66168;45.478;11.060;2023-05-21T04:14:17;100362.91;;;19.47;62.18
76868;BME280;66168;45.478;11.060;2023-05-21T04:16:44;100365.55;;;19.58;61.83
76868;BME280;66168;45.478;11.060;2023-05-21T04:19:11;100364.06;;;19.66;61.26
76868;BME280;66168;45.478;11.060;2023-05-21T04:21:39;100372.84;;;19.77;60.22
76868;BME280;66168;45.478;11.060;2023-05-21T04:24:06;100374.81;;;19.87;60.26
76868;BME280;66168;45.478;11.060;2023-05-21T04:26:48;100372.88;;;19.93;59.68
76868;BME280;66168;45.478;11.060;2023-05-21T04:29:15;100367.65;;;20.00;59.53
76868;BME280;66168;45.478;11.060;2023-05-21T04:31:44;100366.19;;;20.06;58.99
76868;BME280;66168;45.478;11.060;2023-05-21T04:34:12;100362.98;;;20.12;58.47
76868;BME280;66168;45.478;11.060;2023-05-21T04:36:38;100359.23;;;20.17;58.36
76868;BME280;66168;45.478;11.060;2023-05-21T04:39:06;100363.01;;;20.22;58.40
76868;BME280;66168;45.478;11.060;2023-05-21T04:41:33;100357.14;;;20.29;57.73
76868;BME280;66168;45.478;11.060;2023-05-21T04:44:00;100357.40;;;20.35;57.58
76868;BME280;66168;45.478;11.060;2023-05-21T04:46:28;100359.63;;;20.42;56.83
76868;BME280;66168;45.478;11.060;2023-05-21T04:48:56;100359.29;;;20.49;56.80
76868;BME280;66168;45.478;11.060;2023-05-21T04:51:23;100359.95;;;20.53;56.53
76868;BME280;66168;45.478;11.060;2023-05-21T04:53:52;100362.68;;;20.56;56.05
76868;BME280;66168;45.478;11.060;2023-05-21T04:56:19;100368.44;;;20.61;56.01
76868;BME280;66168;45.478;11.060;2023-05-21T04:58:52;100367.95;;;20.68;55.78
76868;BME280;66168;45.478;11.060;2023-05-21T05:01:20;100370.27;;;20.75;55.21
76868;BME280;66168;45.478;11.060;2023-05-21T05:03:49;100368.98;;;20.84;55.12
76868;BME280;66168;45.478;11.060;2023-05-21T05:06:16;100361.73;;;20.87;55.35
76868;BME280;66168;45.478;11.060;2023-05-21T05:08:44;100366.20;;;20.89;55.05
76868;BME280;66168;45.478;11.060;2023-05-21T05:11:13;100360.94;;;20.91;54.79
76868;BME280;66168;45.478;11.060;2023-05-21T05:13:40;100363.35;;;20.94;54.61
76868;BME280;66168;45.478;11.060;2023-05-21T05:16:08;100366.35;;;20.96;54.89
76868;BME280;66168;45.478;11.060;2023-05-21T05:18:35;100360.52;;;20.97;54.54
76868;BME280;66168;45.478;11.060;2023-05-21T05:21:03;100362.80;;;21.02;54.09
76868;BME280;66168;45.478;11.060;2023-05-21T05:23:30;100368.58;;;21.05;53.90
76868;BME280;66168;45.478;11.060;2023-05-21T05:25:57;100372.17;;;21.08;54.52
76868;BME280;66168;45.478;11.060;2023-05-21T05:28:24;100371.83;;;21.09;54.33
76868;BME280;66168;45.478;11.060;2023-05-21T05:30:51;100370.91;;;21.09;54.53
76868;BME280;66168;45.478;11.060;2023-05-21T05:33:21;100377.14;;;21.07;54.68
76868;BME280;66168;45.478;11.060;2023-05-21T05:35:48;100374.23;;;21.03;54.92
76868;BME280;66168;45.478;11.060;2023-05-21T05:38:15;100372.38;;;21.02;54.55
76868;BME280;66168;45.478;11.060;2023-05-21T05:40:42;100374.80;;;21.01;54.74
76868;BME280;66168;45.478;11.060;2023-05-21T05:43:09;100379.54;;;21.01;54.60
76868;BME280;66168;45.478;11.060;2023-05-21T05:45:36;100378.05;;;21.02;54.36
76868;BME280;66168;45.478;11.060;2023-05-21T05:48:08;100375.98;;;21.05;53.89
76868;BME280;66168;45.478;11.060;2023-05-21T05:50:35;100377.13;;;21.07;54.23
76868;BME280;66168;45.478;11.060;2023-05-21T05:53:02;100378.21;;;21.07;54.31
76868;BME280;66168;45.478;11.060;2023-05-21T05:55:29;100381.36;;;21.08;54.28
76868;BME280;66168;45.478;11.060;2023-05-21T05:57:56;100378.82;;;21.08;54.35
76868;BME280;66168;45.478;11.060;2023-05-21T06:00:23;100385.77;;;21.12;54.08
76868;BME280;66168;45.478;11.060;2023-05-21T06:02:50;100387.21;;;21.14;54.12
76868;BME280;66168;45.478;11.060;2023-05-21T06:05:18;100390.48;;;21.16;54.10
76868;BME280;66168;45.478;11.060;2023-05-21T06:07:45;100391.14;;;21.16;54.07
76868;BME280;66168;45.478;11.060;2023-05-21T06:10:12;100392.86;;;21.17;54.18
76868;BME280;66168;45.478;11.060;2023-05-21T06:12:40;100392.16;;;21.20;53.44
76868;BME280;66168;45.478;11.060;2023-05-21T06:15:07;100388.65;;;21.25;53.28
76868;BME280;66168;45.478;11.060;2023-05-21T06:17:35;100389.66;;;21.29;53.11
76868;BME280;66168;45.478;11.060;2023-05-21T06:20:02;100382.58;;;21.32;52.92
76868;BME280;66168;45.478;11.060;2023-05-21T06:22:30;100382.15;;;21.38;53.08
76868;BME280;66168;45.478;11.060;2023-05-21T06:24:57;100377.59;;;21.41;52.97
76868;BME280;66168;45.478;11.060;2023-05-21T06:27:24;100381.14;;;21.45;52.92
76868;BME280;66168;45.478;11.060;2023-05-21T06:29:51;100379.25;;;21.49;52.47
76868;BME280;66168;45.478;11.060;2023-05-21T06:32:18;100378.21;;;21.58;52.13
76868;BME280;66168;45.478;11.060;2023-05-21T06:34:47;100376.71;;;21.65;52.32
76868;BME280;66168;45.478;11.060;2023-05-21T06:37:18;100380.36;;;21.72;52.36
76868;BME280;66168;45.478;11.060;2023-05-21T06:39:51;100379.67;;;21.79;52.06
76868;BME280;66168;45.478;11.060;2023-05-21T06:42:18;100379.63;;;21.85;52.05
76868;BME280;66168;45.478;11.060;2023-05-21T06:44:52;100382.13;;;21.89;52.12
76868;BME280;66168;45.478;11.060;2023-05-21T06:47:27;100386.95;;;21.93;52.13
76868;BME280;66168;45.478;11.060;2023-05-21T06:49:54;100392.98;;;21.96;52.38
76868;BME280;66168;45.478;11.060;2023-05-21T06:52:21;100387.60;;;21.99;52.16
76868;BME280;66168;45.478;11.060;2023-05-21T06:54:48;100388.73;;;22.04;51.51
76868;BME280;66168;45.478;11.060;2023-05-21T06:57:17;100391.39;;;22.11;51.31
76868;BME280;66168;45.478;11.060;2023-05-21T06:59:43;100394.11;;;22.19;51.35
76868;BME280;66168;45.478;11.060;2023-05-21T07:02:10;100396.59;;;22.30;50.93
76868;BME280;66168;45.478;11.060;2023-05-21T07:04:37;100387.33;;;22.43;50.49
76868;BME280;66168;45.478;11.060;2023-05-21T07:07:04;100390.29;;;22.58;50.62
76868;BME280;66168;45.478;11.060;2023-05-21T07:09:31;100388.36;;;22.82;49.93
76868;BME280;66168;45.478;11.060;2023-05-21T07:11:58;100388.08;;;23.18;49.57
76868;BME280;66168;45.478;11.060;2023-05-21T07:14:25;100389.46;;;23.47;48.97
76868;BME280;66168;45.478;11.060;2023-05-21T07:16:52;100384.26;;;23.63;49.09
76868;BME280;66168;45.478;11.060;2023-05-21T07:19:19;100380.77;;;23.88;48.99
76868;BME280;66168;45.478;11.060;2023-05-21T07:21:48;100384.17;;;24.19;48.15
76868;BME280;66168;45.478;11.060;2023-05-21T07:24:15;100392.34;;;24.49;47.75
76868;BME280;66168;45.478;11.060;2023-05-21T07:26:42;100394.48;;;24.84;47.24
76868;BME280;66168;45.478;11.060;2023-05-21T07:29:09;100395.63;;;25.07;46.65
76868;BME280;66168;45.478;11.060;2023-05-21T07:31:36;100390.98;;;25.18;46.37
76868;BME280;66168;45.478;11.060;2023-05-21T07:34:04;100388.34;;;25.33;45.84
76868;BME280;66168;45.478;11.060;2023-05-21T07:36:32;100389.52;;;25.37;45.67
76868;BME280;66168;45.478;11.060;2023-05-21T07:39:01;100385.33;;;25.26;45.82
76868;BME280;66168;45.478;11.060;2023-05-21T07:41:29;100392.52;;;25.10;45.60
76868;BME280;66168;45.478;11.060;2023-05-21T07:43:56;100393.01;;;24.93;46.06
76868;BME280;66168;45.478;11.060;2023-05-21T07:46:23;100390.73;;;24.75;45.68
76868;BME280;66168;45.478;11.060;2023-05-21T07:48:52;100385.15;;;24.63;45.75
76868;BME280;66168;45.478;11.060;2023-05-21T07:51:19;100392.44;;;24.59;46.13
76868;BME280;66168;45.478;11.060;2023-05-21T07:53:46;100388.34;;;24.69;46.46
76868;BME280;66168;45.478;11.060;2023-05-21T07:56:14;100386.27;;;24.85;45.92
76868;BME280;66168;45.478;11.060;2023-05-21T07:58:41;100382.54;;;25.10;45.89
76868;BME280;66168;45.478;11.060;2023-05-21T08:01:12;100379.90;;;25.47;45.52
76868;BME280;66168;45.478;11.060;2023-05-21T08:03:39;100383.38;;;25.79;44.36
76868;BME280;66168;45.478;11.060;2023-05-21T08:06:07;100383.56;;;26.00;43.93
76868;BME280;66168;45.478;11.060;2023-05-21T08:08:33;100390.71;;;26.13;42.99
76868;BME280;66168;45.478;11.060;2023-05-21T08:11:00;100385.92;;;26.15;41.12
76868;BME280;66168;45.478;11.060;2023-05-21T08:13:28;100388.36;;;26.08;41.76
76868;BME280;66168;45.478;11.060;2023-05-21T08:15:55;100397.64;;;26.13;42.00
76868;BME280;66168;45.478;11.060;2023-05-21T08:18:22;100403.50;;;26.21;41.77
76868;BME280;66168;45.478;11.060;2023-05-21T08:20:50;100405.77;;;26.23;41.31
76868;BME280;66168;45.478;11.060;2023-05-21T08:23:18;100404.56;;;26.15;40.53
76868;BME280;66168;45.478;11.060;2023-05-21T08:25:48;100402.39;;;26.04;40.02
76868;BME280;66168;45.478;11.060;2023-05-21T08:28:15;100401.88;;;25.92;40.60
76868;BME280;66168;45.478;11.060;2023-05-21T08:30:42;100401.01;;;25.84;41.04
76868;BME280;66168;45.478;11.060;2023-05-21T08:33:09;100399.80;;;25.76;40.75
76868;BME280;66168;45.478;11.060;2023-05-21T08:35:37;100396.71;;;25.65;41.25
76868;BME280;66168;45.478;11.060;2023-05-21T08:38:16;100397.73;;;25.56;41.43
76868;BME280;66168;45.478;11.060;2023-05-21T08:41:07;100395.84;;;25.50;41.71
76868;BME280;66168;45.478;11.060;2023-05-21T08:43:36;100397.70;;;25.49;41.97
76868;BME280;66168;45.478;11.060;2023-05-21T08:46:04;100395.11;;;25.59;42.15
76868;BME280;66168;45.478;11.060;2023-05-21T08:48:36;100399.52;;;25.69;41.84
76868;BME280;66168;45.478;11.060;2023-05-21T08:51:04;100391.52;;;25.85;41.05
76868;BME280;66168;45.478;11.060;2023-05-21T08:53:34;100393.55;;;26.16;41.64
76868;BME280;66168;45.478;11.060;2023-05-21T08:56:04;100397.36;;;26.51;41.14
76868;BME280;66168;45.478;11.060;2023-05-21T08:58:41;100394.25;;;26.85;40.11
76868;BME280;66168;45.478;11.060;2023-05-21T09:01:11;100391.16;;;27.08;39.43
76868;BME280;66168;45.478;11.060;2023-05-21T09:03:39;100394.63;;;27.24;39.43
76868;BME280;66168;45.478;11.060;2023-05-21T09:06:10;100389.09;;;27.49;39.29
76868;BME280;66168;45.478;11.060;2023-05-21T09:08:43;100392.61;;;27.79;38.45
76868;BME280;66168;45.478;11.060;2023-05-21T09:11:19;100397.89;;;28.07;38.17
76868;BME280;66168;45.478;11.060;2023-05-21T09:13:52;100390.16;;;28.17;37.03
76868;BME280;66168;45.478;11.060;2023-05-21T09:16:28;100389.02;;;28.32;37.97
76868;BME280;66168;45.478;11.060;2023-05-21T09:18:55;100394.63;;;28.56;37.35
76868;BME280;66168;45.478;11.060;2023-05-21T09:21:29;100388.57;;;28.75;37.31
76868;BME280;66168;45.478;11.060;2023-05-21T09:24:08;100396.79;;;28.83;36.56
76868;BME280;66168;45.478;11.060;2023-05-21T09:26:36;100391.95;;;28.79;36.08
76868;BME280;66168;45.478;11.060;2023-05-21T09:29:05;100394.95;;;28.75;35.92
76868;BME280;66168;45.478;11.060;2023-05-21T09:31:32;100402.10;;;28.80;35.32
76868;BME280;66168;45.478;11.060;2023-05-21T09:33:59;100404.48;;;28.84;34.85
76868;BME280;66168;45.478;11.060;2023-05-21T09:36:26;100409.47;;;28.82;35.02
76868;BME280;66168;45.478;11.060;2023-05-21T09:38:55;100398.02;;;28.82;35.04
76868;BME280;66168;45.478;11.060;2023-05-21T09:41:33;100402.23;;;28.81;35.10
76868;BME280;66168;45.478;11.060;2023-05-21T09:44:03;100405.25;;;28.66;35.20
76868;BME280;66168;45.478;11.060;2023-05-21T09:46:40;100397.33;;;28.64;35.31
76868;BME280;66168;45.478;11.060;2023-05-21T09:49:28;100401.23;;;28.64;35.01
76868;BME280;66168;45.478;11.060;2023-05-21T09:51:57;100397.34;;;28.48;35.21
76868;BME280;66168;45.478;11.060;2023-05-21T09:54:25;100388.72;;;28.62;35.58
76868;BME280;66168;45.478;11.060;2023-05-21T09:56:56;100382.27;;;28.90;35.54
76868;BME280;66168;45.478;11.060;2023-05-21T09:59:24;100386.35;;;29.05;35.37
76868;BME280;66168;45.478;11.060;2023-05-21T10:02:00;100392.29;;;29.20;35.26
76868;BME280;66168;45.478;11.060;2023-05-21T10:04:28;100388.11;;;29.18;34.48
76868;BME280;66168;45.478;11.060;2023-05-21T10:06:58;100393.61;;;29.22;34.84
76868;BME280;66168;45.478;11.060;2023-05-21T10:09:27;100400.05;;;29.30;34.70
76868;BME280;66168;45.478;11.060;2023-05-21T10:11:56;100400.11;;;29.20;34.21
76868;BME280;66168;45.478;11.060;2023-05-21T10:14:24;100396.85;;;29.11;34.16
76868;BME280;66168;45.478;11.060;2023-05-21T10:16:53;100399.14;;;29.08;34.76
76868;BME280;66168;45.478;11.060;2023-05-21T10:19:23;100400.49;;;29.23;34.79
76868;BME280;66168;45.478;11.060;2023-05-21T10:21:51;100400.42;;;29.30;34.34
76868;BME280;66168;45.478;11.060;2023-05-21T10:24:19;100395.89;;;29.35;34.68
76868;BME280;66168;45.478;11.060;2023-05-21T10:26:47;100390.06;;;29.41;34.76
76868;BME280;66168;45.478;11.060;2023-05-21T10:29:14;100388.17;;;29.52;34.21
76868;BME280;66168;45.478;11.060;2023-05-21T10:31:45;100393.56;;;29.59;34.21
76868;BME280;66168;45.478;11.060;2023-05-21T10:34:16;100394.75;;;29.59;33.43
76868;BME280;66168;45.478;11.060;2023-05-21T10:36:44;100396.23;;;29.48;33.84
76868;BME280;66168;45.478;11.060;2023-05-21T10:39:11;100388.39;;;29.27;34.00
76868;BME280;66168;45.478;11.060;2023-05-21T10:41:47;100390.84;;;29.23;33.55
76868;BME280;66168;45.478;11.060;2023-05-21T10:44:49;100387.69;;;29.23;33.81
76868;BME280;66168;45.478;11.060;2023-05-21T10:55:51;100381.34;;;28.46;34.75
76868;BME280;66168;45.478;11.060;2023-05-21T11:01:09;100378.58;;;28.41;34.70
76868;BME280;66168;45.478;11.060;2023-05-21T11:03:37;100371.54;;;28.49;34.67
76868;BME280;66168;45.478;11.060;2023-05-21T11:06:05;100366.39;;;28.75;34.37
76868;BME280;66168;45.478;11.060;2023-05-21T11:08:32;100367.82;;;29.08;34.31
76868;BME280;66168;45.478;11.060;2023-05-21T11:11:03;100364.58;;;29.39;33.94
76868;BME280;66168;45.478;11.060;2023-05-21T11:13:47;100367.15;;;29.66;33.48
76868;BME280;66168;45.478;11.060;2023-05-21T11:16:15;100368.52;;;29.83;33.22
76868;BME280;66168;45.478;11.060;2023-05-21T11:21:14;100360.07;;;29.91;31.65
76868;BME280;66168;45.478;11.060;2023-05-21T11:26:19;100355.84;;;30.07;32.52
76868;BME280;66168;45.478;11.060;2023-05-21T11:29:06;100358.49;;;30.27;32.22
76868;BME280;66168;45.478;11.060;2023-05-21T11:31:35;100353.36;;;30.52;31.51
76868;BME280;66168;45.478;11.060;2023-05-21T11:34:22;100360.36;;;30.62;31.64
76868;BME280;66168;45.478;11.060;2023-05-21T11:37:25;100354.35;;;30.61;31.24
76868;BME280;66168;45.478;11.060;2023-05-21T11:39:56;100350.85;;;30.72;31.60
76868;BME280;66168;45.478;11.060;2023-05-21T11:44:59;100357.92;;;30.65;30.64
76868;BME280;66168;45.478;11.060;2023-05-21T11:47:27;100356.24;;;30.54;30.78
76868;BME280;66168;45.478;11.060;2023-05-21T11:49:58;100355.73;;;30.54;30.20
76868;BME280;66168;45.478;11.060;2023-05-21T11:52:27;100356.13;;;30.48;30.42
76868;BME280;66168;45.478;11.060;2023-05-21T11:54:54;100343.14;;;30.38;30.91
76868;BME280;66168;45.478;11.060;2023-05-21T11:57:28;100336.14;;;30.61;31.01
76868;BME280;66168;45.478;11.060;2023-05-21T11:59:58;100342.98;;;30.63;30.89
76868;BME280;66168;45.478;11.060;2023-05-21T12:02:29;100337.20;;;30.54;31.18
76868;BME280;66168;45.478;11.060;2023-05-21T12:04:58;100330.61;;;30.66;31.70
76868;BME280;66168;45.478;11.060;2023-05-21T12:07:29;100340.70;;;30.84;31.87
76868;BME280;66168;45.478;11.060;2023-05-21T12:09:57;100334.48;;;30.84;31.07
76868;BME280;66168;45.478;11.060;2023-05-21T12:12:25;100336.17;;;30.77;31.54
76868;BME280;66168;45.478;11.060;2023-05-21T12:15:01;100327.23;;;30.88;31.44
76868;BME280;66168;45.478;11.060;2023-05-21T12:17:28;100335.20;;;30.90;30.91
76868;BME280;66168;45.478;11.060;2023-05-21T12:19:57;100330.99;;;30.74;31.58
76868;BME280;66168;45.478;11.060;2023-05-21T12:22:24;100323.05;;;30.75;31.41
76868;BME280;66168;45.478;11.060;2023-05-21T12:24:54;100323.29;;;30.67;31.35
76868;BME280;66168;45.478;11.060;2023-05-21T12:27:23;100318.67;;;30.50;30.87
76868;BME280;66168;45.478;11.060;2023-05-21T12:29:54;100323.40;;;30.33;31.78
76868;BME280;66168;45.478;11.060;2023-05-21T12:32:26;100319.41;;;30.23;32.48
76868;BME280;66168;45.478;11.060;2023-05-21T12:34:55;100321.83;;;30.07;32.55
76868;BME280;66168;45.478;11.060;2023-05-21T12:37:27;100317.96;;;30.09;32.45
76868;BME280;66168;45.478;11.060;2023-05-21T12:39:59;100324.85;;;30.30;32.70
76868;BME280;66168;45.478;11.060;2023-05-21T12:42:29;100318.58;;;30.62;32.65
76868;BME280;66168;45.478;11.060;2023-05-21T12:44:56;100322.65;;;30.87;32.42
76868;BME280;66168;45.478;11.060;2023-05-21T12:47:25;100321.91;;;31.20;31.79
76868;BME280;66168;45.478;11.060;2023-05-21T12:49:56;100319.98;;;31.23;31.31
76868;BME280;66168;45.478;11.060;2023-05-21T12:52:26;100318.45;;;31.12;31.41
76868;BME280;66168;45.478;11.060;2023-05-21T12:54:55;100323.48;;;31.01;31.72
76868;BME280;66168;45.478;11.060;2023-05-21T12:57:35;100322.30;;;30.88;31.55
76868;BME280;66168;45.478;11.060;2023-05-21T13:00:14;100316.41;;;30.60;32.19
76868;BME280;66168;45.478;11.060;2023-05-21T13:02:50;100314.89;;;30.76;32.34
76868;BME280;66168;45.478;11.060;2023-05-21T13:05:17;100320.02;;;30.67;32.36
76868;BME280;66168;45.478;11.060;2023-05-21T13:07:45;100322.77;;;30.75;32.71
76868;BME280;66168;45.478;11.060;2023-05-21T13:10:13;100312.26;;;30.83;31.80